Time;durP1;ratioP1;P1;durP2;ratioP2;P2;SDS_P1;SDS_P2;PMS_P1;PMS_P2;Temp;Humidity;BMP_temperature;BMP_pressure;BME280_temperature;BME280_humidity;BME280_pressure;Samples;Min_cycle;Max_cycle;Signal;HPM_P1;HPM_P2
2021/09/12 00:01:23;;;;;;;3.63;3.33;;;17.60;99.90;;;;;;5036110;28;20753;-59
2021/09/12 00:03:49;;;;;;;4.10;3.80;;;17.60;99.90;;;;;;5036168;28;20424;-57
2021/09/12 00:06:14;;;;;;;5.30;4.90;;;17.60;99.90;;;;;;5034037;28;20175;-58
2021/09/12 00:08:40;;;;;;;4.10;3.80;;;17.60;99.90;;;;;;5036152;28;20187;-54
2021/09/12 00:11:06;;;;;;;4.00;3.70;;;17.50;99.90;;;;;;5035876;28;20170;-58
2021/09/12 00:13:32;;;;;;;4.03;3.73;;;17.40;99.90;;;;;;5035951;28;20218;-59
2021/09/12 00:15:58;;;;;;;7.40;3.93;;;17.40;99.90;;;;;;5036059;28;20417;-59
2021/09/12 00:18:24;;;;;;;3.80;3.50;;;17.40;99.90;;;;;;5036347;28;20171;-58
2021/09/12 00:20:49;;;;;;;4.50;4.10;;;17.40;99.90;;;;;;5036489;28;20520;-58
2021/09/12 00:23:15;;;;;;;4.63;3.87;;;17.30;99.90;;;;;;5035872;28;20617;-58
2021/09/12 00:25:41;;;;;;;4.40;4.00;;;17.20;99.90;;;;;;5036333;28;20166;-58
2021/09/12 00:28:06;;;;;;;6.17;4.13;;;17.10;99.90;;;;;;5036409;28;20973;-58
2021/09/12 00:30:32;;;;;;;6.20;3.90;;;17.10;99.90;;;;;;5036209;28;20164;-58
2021/09/12 00:32:58;;;;;;;4.57;3.63;;;17.10;99.90;;;;;;5036531;28;20195;-59
2021/09/12 00:35:23;;;;;;;5.17;4.77;;;17.10;99.90;;;;;;5035762;28;20629;-58
2021/09/12 00:37:50;;;;;;;4.70;4.30;;;17.10;99.90;;;;;;5035703;28;20258;-56
2021/09/12 00:40:18;;;;;;;4.57;4.10;;;17.20;99.90;;;;;;5035741;28;20178;-58
2021/09/12 00:42:44;;;;;;;5.00;3.90;;;17.20;99.90;;;;;;5035983;28;20424;-57
2021/09/12 00:45:10;;;;;;;5.73;4.67;;;17.10;99.90;;;;;;5035944;28;20500;-57
2021/09/12 00:47:36;;;;;;;4.33;4.00;;;17.10;99.90;;;;;;5035916;28;20600;-58
2021/09/12 00:50:02;;;;;;;4.63;4.23;;;17.10;99.90;;;;;;5035759;28;20470;-58
2021/09/12 00:52:30;;;;;;;4.57;4.17;;;17.10;99.90;;;;;;5035979;28;20189;-58
2021/09/12 00:54:57;;;;;;;4.27;3.87;;;17.10;99.90;;;;;;5035285;28;20444;-58
2021/09/12 00:57:24;;;;;;;4.27;3.97;;;17.00;99.90;;;;;;5035689;28;20785;-59
2021/09/12 00:59:52;;;;;;;5.70;4.60;;;17.00;99.90;;;;;;5035359;28;20412;-59
2021/09/12 01:02:18;;;;;;;4.53;4.10;;;17.00;99.90;;;;;;5035795;28;20409;-58
2021/09/12 01:04:44;;;;;;;4.80;3.80;;;17.00;99.90;;;;;;5034812;28;20434;-59
2021/09/12 01:07:10;;;;;;;6.30;3.97;;;17.00;99.90;;;;;;5035118;28;20952;-58
2021/09/12 01:09:40;;;;;;;4.77;4.10;;;17.00;99.90;;;;;;5035004;28;20182;-58
2021/09/12 01:12:07;;;;;;;5.93;3.97;;;16.90;99.90;;;;;;5034849;28;20551;-58
2021/09/12 01:14:34;;;;;;;5.13;4.63;;;16.80;99.90;;;;;;5034736;28;20544;-56
2021/09/12 01:17:01;;;;;;;6.70;4.00;;;16.80;99.90;;;;;;5034736;28;20427;-58
2021/09/12 01:19:28;;;;;;;5.30;4.23;;;16.70;99.90;;;;;;5034819;28;20436;-59
2021/09/12 01:21:59;;;;;;;3.87;3.57;;;16.70;99.90;;;;;;5035051;28;20902;-57
2021/09/12 01:24:26;;;;;;;4.30;3.70;;;16.60;99.90;;;;;;5033545;28;20437;-58
2021/09/12 01:26:51;;;;;;;8.20;4.00;;;16.70;99.90;;;;;;5034305;28;20482;-58
2021/09/12 01:29:17;;;;;;;5.40;3.33;;;16.60;99.90;;;;;;5034746;28;20416;-57
2021/09/12 01:31:43;;;;;;;4.57;4.27;;;16.60;99.90;;;;;;5034583;28;20547;-58
2021/09/12 01:34:08;;;;;;;4.80;3.90;;;16.60;99.90;;;;;;5034795;28;20559;-59
2021/09/12 01:36:35;;;;;;;4.90;4.50;;;16.70;99.90;;;;;;5034678;28;20173;-57
2021/09/12 01:39:01;;;;;;;4.20;3.80;;;16.70;99.90;;;;;;5035006;28;20171;-58
2021/09/12 01:41:28;;;;;;;5.20;3.80;;;16.60;99.90;;;;;;5034274;28;20417;-58
2021/09/12 01:43:56;;;;;;;4.87;4.13;;;16.60;99.90;;;;;;5034512;28;20206;-59
2021/09/12 01:46:21;;;;;;;5.30;3.83;;;16.50;99.90;;;;;;5034271;28;20412;-57
2021/09/12 01:48:47;;;;;;;5.40;4.10;;;16.60;99.90;;;;;;5034313;28;20458;-59
2021/09/12 01:51:13;;;;;;;5.87;4.53;;;16.50;99.90;;;;;;5034209;28;20203;-59
2021/09/12 01:53:40;;;;;;;4.47;4.07;;;16.50;99.90;;;;;;5016323;28;20437;-58
2021/09/12 01:56:06;;;;;;;4.40;4.00;;;16.50;99.90;;;;;;5034109;28;20192;-59
2021/09/12 01:58:31;;;;;;;4.50;4.10;;;16.50;99.90;;;;;;5034481;28;20425;-58
2021/09/12 02:00:57;;;;;;;3.80;3.50;;;16.50;99.90;;;;;;5033832;28;20180;-58
2021/09/12 02:03:24;;;;;;;4.50;4.10;;;16.50;99.90;;;;;;5029499;28;20276;-59
2021/09/12 02:05:50;;;;;;;4.40;4.00;;;16.40;99.90;;;;;;5014263;28;20575;-59
2021/09/12 02:08:15;;;;;;;5.03;4.00;;;16.40;99.90;;;;;;5014055;28;20460;-59
2021/09/12 02:10:42;;;;;;;7.40;3.60;;;16.20;99.90;;;;;;5013952;28;20176;-58
2021/09/12 02:13:08;;;;;;;3.83;3.50;;;16.30;99.90;;;;;;5014121;28;20614;-59
2021/09/12 02:15:34;;;;;;;4.70;4.30;;;16.40;99.90;;;;;;5013821;28;20449;-58
2021/09/12 02:18:00;;;;;;;4.70;4.20;;;16.30;99.90;;;;;;5014016;28;20452;-59
2021/09/12 02:20:25;;;;;;;4.90;4.50;;;16.30;99.90;;;;;;5014068;28;20179;-57
2021/09/12 02:22:51;;;;;;;3.43;3.23;;;16.20;99.90;;;;;;5014186;28;20177;-58
2021/09/12 02:25:16;;;;;;;5.10;3.67;;;16.20;99.90;;;;;;5031880;28;20185;-58
2021/09/12 02:27:42;;;;;;;4.40;4.00;;;16.20;99.90;;;;;;5033640;28;20285;-57
2021/09/12 02:30:08;;;;;;;6.50;4.00;;;16.20;99.90;;;;;;5033784;28;20174;-56
2021/09/12 02:32:33;;;;;;;4.13;3.80;;;16.20;99.90;;;;;;5033795;28;20172;-59
2021/09/12 02:34:59;;;;;;;5.20;3.80;;;16.10;99.90;;;;;;5033555;28;20413;-58
2021/09/12 02:37:25;;;;;;;4.57;4.10;;;16.00;99.90;;;;;;5033815;28;20186;-58
2021/09/12 02:39:51;;;;;;;5.10;4.60;;;16.10;99.90;;;;;;5033545;28;20416;-59
2021/09/12 02:42:17;;;;;;;5.47;4.73;;;16.10;99.90;;;;;;5033378;28;20487;-58
2021/09/12 02:44:42;;;;;;;4.47;4.07;;;16.00;99.90;;;;;;5033337;28;20285;-59
2021/09/12 02:47:08;;;;;;;4.50;4.10;;;16.00;99.90;;;;;;5033229;28;20900;-58
2021/09/12 02:49:34;;;;;;;4.60;4.20;;;16.10;99.90;;;;;;5033455;28;20163;-58
2021/09/12 02:51:59;;;;;;;7.67;4.00;;;16.10;99.90;;;;;;5033351;28;20622;-59
2021/09/12 02:54:25;;;;;;;4.20;3.90;;;16.10;99.90;;;;;;5033165;28;20290;-59
2021/09/12 02:56:50;;;;;;;4.03;3.63;;;16.20;99.90;;;;;;5033266;28;20177;-57
2021/09/12 02:59:16;;;;;;;4.20;3.73;;;16.20;99.90;;;;;;5032505;28;20646;-57
2021/09/12 03:01:41;;;;;;;7.03;4.60;;;16.20;99.90;;;;;;5033150;28;20182;-58
2021/09/12 03:04:07;;;;;;;4.33;4.03;;;16.30;99.90;;;;;;5033331;28;20193;-59
2021/09/12 03:06:33;;;;;;;3.63;3.43;;;16.20;99.90;;;;;;5033499;28;20178;-56
2021/09/12 03:08:58;;;;;;;6.80;3.70;;;16.20;99.90;;;;;;5034117;28;20182;-57
2021/09/12 03:11:24;;;;;;;3.80;3.50;;;16.20;99.90;;;;;;5033033;28;20212;-59
2021/09/12 03:13:49;;;;;;;5.77;3.40;;;16.20;99.90;;;;;;5046964;23;20691;-62
2021/09/12 03:16:16;;;;;;;5.30;3.80;;;16.10;99.90;;;;;;5032868;28;20539;-62
2021/09/12 03:18:42;;;;;;;4.23;3.80;;;16.10;99.90;;;;;;5032828;28;20178;-61
2021/09/12 03:21:08;;;;;;;6.63;4.10;;;16.10;99.90;;;;;;5033381;28;20400;-63
2021/09/12 03:23:33;;;;;;;4.20;3.90;;;16.10;99.90;;;;;;5032791;28;20495;-61
2021/09/12 03:25:59;;;;;;;5.90;4.03;;;16.20;99.90;;;;;;5032606;28;20670;-63
2021/09/12 03:28:24;;;;;;;4.63;3.90;;;16.10;99.90;;;;;;5035024;28;20282;-62
2021/09/12 03:30:50;;;;;;;7.70;4.90;;;16.10;99.90;;;;;;5036711;28;20183;-62
2021/09/12 03:33:16;;;;;;;4.90;4.50;;;16.00;99.90;;;;;;5036578;28;20169;-63
2021/09/12 03:35:42;;;;;;;4.30;4.00;;;16.00;99.90;;;;;;5036900;28;20259;-62
2021/09/12 03:38:08;;;;;;;3.90;3.60;;;16.00;99.90;;;;;;5036542;28;20492;-62
2021/09/12 03:40:34;;;;;;;3.93;3.63;;;16.00;99.90;;;;;;5036211;28;20160;-62
2021/09/12 03:43:00;;;;;;;4.30;3.90;;;16.00;99.90;;;;;;5035138;28;20478;-62
2021/09/12 03:45:26;;;;;;;4.10;3.80;;;16.00;99.90;;;;;;5030630;28;20646;-63
2021/09/12 03:47:51;;;;;;;3.47;3.17;;;16.00;99.90;;;;;;5016827;28;20201;-61
2021/09/12 03:50:17;;;;;;;7.03;3.83;;;15.90;99.90;;;;;;5016575;28;20167;-61
2021/09/12 03:52:43;;;;;;;7.73;3.83;;;15.90;99.90;;;;;;5016839;28;20174;-64
2021/09/12 03:55:09;;;;;;;5.17;3.80;;;15.90;99.90;;;;;;5033574;28;20285;-62
2021/09/12 03:57:36;;;;;;;5.37;4.87;;;15.90;99.90;;;;;;5035906;28;20182;-62
2021/09/12 04:00:03;;;;;;;4.00;3.60;;;15.80;99.90;;;;;;5036401;28;20821;-62
2021/09/12 04:02:28;;;;;;;6.20;4.63;;;15.80;99.90;;;;;;5036143;28;20463;-62
2021/09/12 04:04:54;;;;;;;5.00;3.10;;;15.80;99.90;;;;;;5036032;28;20831;-62
2021/09/12 04:07:19;;;;;;;5.73;4.10;;;15.80;99.90;;;;;;5036217;28;20195;-63
2021/09/12 04:09:45;;;;;;;3.90;3.60;;;15.70;99.90;;;;;;5036030;28;20164;-62
2021/09/12 04:12:11;;;;;;;5.47;3.80;;;15.70;99.90;;;;;;5035787;28;20665;-62
2021/09/12 04:14:36;;;;;;;4.60;4.20;;;15.70;99.90;;;;;;5024668;28;20217;-61
2021/09/12 04:17:02;;;;;;;4.30;3.90;;;15.60;99.90;;;;;;5015881;28;20630;-61
2021/09/12 04:19:28;;;;;;;4.50;4.10;;;15.60;99.90;;;;;;5016331;28;20543;-62
2021/09/12 04:21:53;;;;;;;5.00;4.50;;;15.70;99.90;;;;;;4998387;28;20274;-62
2021/09/12 04:24:20;;;;;;;6.10;3.70;;;15.70;99.90;;;;;;5026197;28;20204;-62
2021/09/12 04:26:46;;;;;;;3.90;3.53;;;15.70;99.90;;;;;;5035365;28;20333;-62
2021/09/12 04:29:12;;;;;;;3.90;3.60;;;15.70;99.90;;;;;;5035480;28;20450;-63
2021/09/12 04:31:38;;;;;;;4.77;4.30;;;15.70;99.90;;;;;;5035324;28;20493;-62
2021/09/12 04:34:04;;;;;;;3.57;3.17;;;15.70;99.90;;;;;;5035308;28;20846;-61
2021/09/12 04:36:29;;;;;;;3.87;3.57;;;15.70;99.90;;;;;;5035364;28;20165;-63
2021/09/12 04:38:55;;;;;;;4.20;3.90;;;15.70;99.90;;;;;;5035476;28;20484;-61
2021/09/12 04:41:21;;;;;;;4.70;4.03;;;15.70;99.90;;;;;;5035104;28;20176;-62
2021/09/12 04:43:47;;;;;;;3.63;3.33;;;15.70;99.90;;;;;;5035541;28;20197;-61
2021/09/12 04:46:12;;;;;;;4.30;4.00;;;15.70;99.90;;;;;;5035682;28;20168;-62
2021/09/12 04:48:38;;;;;;;6.40;4.90;;;15.60;99.90;;;;;;5035203;28;20283;-62
2021/09/12 04:51:03;;;;;;;3.73;3.37;;;15.60;99.90;;;;;;5035521;28;20178;-61
2021/09/12 04:53:29;;;;;;;5.20;4.10;;;15.60;99.90;;;;;;5035522;28;20210;-60
2021/09/12 04:55:55;;;;;;;3.70;3.40;;;15.60;99.90;;;;;;5034900;28;20156;-62
2021/09/12 04:58:20;;;;;;;5.30;3.97;;;15.60;99.90;;;;;;5035177;28;20629;-61
2021/09/12 05:00:46;;;;;;;4.20;3.80;;;15.60;99.90;;;;;;5035118;28;20170;-61
2021/09/12 05:03:11;;;;;;;3.97;3.67;;;15.50;99.90;;;;;;5035192;28;20182;-62
2021/09/12 05:05:37;;;;;;;3.90;3.60;;;15.50;99.90;;;;;;5034922;28;20169;-62
2021/09/12 05:08:04;;;;;;;4.60;4.00;;;15.50;99.90;;;;;;5035097;28;20188;-61
2021/09/12 05:10:30;;;;;;;3.93;3.63;;;15.50;99.90;;;;;;5034771;28;20424;-61
2021/09/12 05:12:55;;;;;;;6.53;4.43;;;15.50;99.90;;;;;;5034764;28;20902;-62
2021/09/12 05:15:21;;;;;;;5.07;4.23;;;15.50;99.90;;;;;;5034780;28;20204;-61
2021/09/12 05:17:47;;;;;;;7.03;3.87;;;15.50;99.90;;;;;;5034545;28;20275;-62
2021/09/12 05:20:12;;;;;;;3.87;3.57;;;15.50;99.90;;;;;;5034964;28;20181;-62
2021/09/12 05:22:38;;;;;;;5.00;4.60;;;15.60;99.90;;;;;;5034903;28;20173;-63
2021/09/12 05:25:04;;;;;;;4.40;4.00;;;15.60;99.90;;;;;;5034496;28;20226;-61
2021/09/12 05:27:30;;;;;;;4.30;3.90;;;15.60;99.90;;;;;;5034132;28;20245;-62
2021/09/12 05:29:56;;;;;;;4.20;3.80;;;15.60;99.90;;;;;;5034741;28;20802;-62
2021/09/12 05:32:21;;;;;;;5.30;4.80;;;15.60;99.90;;;;;;5034338;28;20534;-63
2021/09/12 05:34:47;;;;;;;4.70;4.20;;;15.60;99.90;;;;;;5034428;28;20237;-60
2021/09/12 05:37:13;;;;;;;4.17;3.87;;;15.60;99.90;;;;;;5034384;28;20174;-61
2021/09/12 05:39:39;;;;;;;4.47;4.07;;;15.60;99.90;;;;;;5035124;28;20567;-62
2021/09/12 05:42:05;;;;;;;4.77;4.37;;;15.70;99.90;;;;;;5034202;28;20257;-61
2021/09/12 05:44:31;;;;;;;3.63;3.40;;;15.70;99.90;;;;;;5034074;28;20531;-60
2021/09/12 05:46:57;;;;;;;4.13;3.83;;;15.70;99.90;;;;;;5034142;28;20283;-62
2021/09/12 05:49:23;;;;;;;5.00;4.60;;;15.70;99.90;;;;;;5034000;28;20913;-61
2021/09/12 05:51:49;;;;;;;5.50;3.80;;;15.70;99.90;;;;;;5033274;28;20403;-61
2021/09/12 05:54:15;;;;;;;4.60;4.30;;;15.70;99.90;;;;;;5034137;28;20289;-62
2021/09/12 05:56:41;;;;;;;3.80;3.40;;;15.80;99.90;;;;;;5033941;28;20915;-61
2021/09/12 05:59:07;;;;;;;5.00;4.57;;;15.80;99.90;;;;;;5034238;28;20411;-63
2021/09/12 06:01:33;;;;;;;3.37;3.07;;;15.90;99.90;;;;;;5033713;28;20179;-62
2021/09/12 06:03:58;;;;;;;4.10;3.80;;;15.90;99.90;;;;;;5033830;28;20417;-63
2021/09/12 06:06:24;;;;;;;4.27;3.90;;;15.90;99.90;;;;;;5033999;28;20248;-62
2021/09/12 06:08:50;;;;;;;4.63;4.23;;;15.90;99.90;;;;;;5033785;28;20164;-62
2021/09/12 06:11:15;;;;;;;5.20;4.60;;;16.00;99.90;;;;;;5033589;28;20166;-60
2021/09/12 06:13:41;;;;;;;4.77;3.90;;;16.10;99.90;;;;;;5033731;28;20309;-62
2021/09/12 06:16:08;;;;;;;4.80;4.30;;;16.10;99.90;;;;;;5033789;28;20244;-61
2021/09/12 06:18:34;;;;;;;4.50;4.10;;;16.00;99.90;;;;;;5030950;28;20249;-62
2021/09/12 06:20:59;;;;;;;4.07;3.77;;;16.10;99.90;;;;;;5014608;28;20437;-62
2021/09/12 06:23:25;;;;;;;5.43;4.93;;;16.20;99.90;;;;;;5016838;28;20277;-61
2021/09/12 06:25:51;;;;;;;4.20;3.80;;;16.20;99.90;;;;;;5033410;28;20205;-60
2021/09/12 06:28:17;;;;;;;4.23;3.93;;;16.30;99.90;;;;;;5033644;28;20222;-61
2021/09/12 06:30:43;;;;;;;4.73;4.33;;;16.30;99.90;;;;;;5033757;28;20165;-62
2021/09/12 06:33:08;;;;;;;3.97;3.53;;;16.40;99.90;;;;;;5033165;28;20665;-61
2021/09/12 06:35:34;;;;;;;4.20;3.90;;;16.40;99.90;;;;;;5031655;28;20408;-63
2021/09/12 06:37:59;;;;;;;5.20;4.80;;;16.50;99.90;;;;;;5033125;28;20185;-60
2021/09/12 06:40:30;;;;;;;4.43;4.03;;;16.60;99.90;;;;;;5033346;28;20180;-61
2021/09/12 06:43:00;;;;;;;4.30;4.00;;;16.70;99.90;;;;;;5033323;28;20249;-62
2021/09/12 06:45:26;;;;;;;5.10;4.70;;;16.80;99.90;;;;;;5033426;28;20429;-62
2021/09/12 06:47:53;;;;;;;5.07;4.57;;;16.80;99.90;;;;;;5032881;28;20445;-62
2021/09/12 06:50:19;;;;;;;4.43;4.13;;;17.00;99.90;;;;;;5015512;28;20817;-62
2021/09/12 06:52:44;;;;;;;5.70;5.20;;;17.10;99.90;;;;;;5033112;28;20834;-61
2021/09/12 06:55:10;;;;;;;5.20;4.80;;;17.20;99.90;;;;;;5033026;28;20507;-61
2021/09/12 06:57:36;;;;;;;4.80;4.40;;;17.30;99.90;;;;;;5015039;28;20309;-61
2021/09/12 07:00:02;;;;;;;4.90;4.47;;;17.40;99.90;;;;;;5033132;28;20529;-62
2021/09/12 07:02:28;;;;;;;4.87;4.47;;;17.40;99.90;;;;;;5035166;28;20174;-61
2021/09/12 07:04:53;;;;;;;5.63;5.07;;;17.50;99.90;;;;;;5037168;28;20440;-62
2021/09/12 07:07:19;;;;;;;5.70;5.20;;;17.70;99.90;;;;;;5037093;28;20183;-62
2021/09/12 07:09:45;;;;;;;5.37;4.97;;;17.70;99.90;;;;;;5037022;28;20168;-63
2021/09/12 07:12:10;;;;;;;5.30;4.83;;;17.80;99.90;;;;;;5036717;28;20165;-61
2021/09/12 07:14:36;;;;;;;5.90;4.73;;;17.90;99.90;;;;;;5036915;28;20667;-62
2021/09/12 07:17:02;;;;;;;5.10;4.40;;;18.00;99.90;;;;;;5036815;28;20175;-62
2021/09/12 07:19:27;;;;;;;5.03;4.60;;;18.10;99.90;;;;;;5036894;28;20190;-61
2021/09/12 07:21:53;;;;;;;6.60;4.57;;;18.20;99.90;;;;;;5037101;28;20637;-62
2021/09/12 07:24:18;;;;;;;4.93;4.20;;;18.30;99.90;;;;;;5036690;28;20333;-61
2021/09/12 07:26:44;;;;;;;5.30;4.80;;;18.50;99.90;;;;;;5036680;28;20577;-62
2021/09/12 07:29:10;;;;;;;4.17;3.87;;;18.50;99.90;;;;;;5019044;28;20167;-61
2021/09/12 07:31:35;;;;;;;4.70;4.30;;;18.60;99.90;;;;;;5036472;28;20172;-61
2021/09/12 07:34:02;;;;;;;3.90;3.60;;;18.60;99.90;;;;;;5036644;28;20202;-61
2021/09/12 07:36:29;;;;;;;6.13;5.63;;;18.70;99.90;;;;;;5036422;28;20714;-61
2021/09/12 07:38:54;;;;;;;4.13;3.83;;;18.80;99.90;;;;;;5036675;28;20420;-61
2021/09/12 07:41:20;;;;;;;5.10;4.53;;;18.80;99.90;;;;;;5036428;28;20903;-63
2021/09/12 07:43:45;;;;;;;5.73;5.13;;;18.90;99.90;;;;;;5036386;28;20191;-62
2021/09/12 07:46:11;;;;;;;4.40;4.00;;;19.00;99.90;;;;;;5036194;28;20579;-63
2021/09/12 07:48:37;;;;;;;5.40;5.00;;;19.10;99.90;;;;;;5036139;28;20687;-62
2021/09/12 07:51:02;;;;;;;5.73;4.97;;;19.10;99.90;;;;;;5036377;28;20221;-62
2021/09/12 07:53:29;;;;;;;4.43;4.00;;;19.10;99.90;;;;;;5036289;28;20277;-61
2021/09/12 07:55:54;;;;;;;5.37;4.87;;;19.10;99.90;;;;;;5036575;28;20579;-61
2021/09/12 07:58:20;;;;;;;4.63;4.33;;;19.30;99.90;;;;;;5035940;28;20461;-62
2021/09/12 08:00:46;;;;;;;5.63;5.13;;;19.40;99.90;;;;;;5036167;28;20210;-62
2021/09/12 08:03:12;;;;;;;4.93;4.53;;;19.40;99.90;;;;;;5035919;28;20213;-62
2021/09/12 08:05:37;;;;;;;5.03;4.73;;;19.40;99.90;;;;;;5036051;28;20167;-62
2021/09/12 08:08:03;;;;;;;5.00;4.50;;;19.40;99.90;;;;;;5036135;28;20241;-62
2021/09/12 08:10:29;;;;;;;5.73;5.23;;;19.40;99.90;;;;;;5036031;28;20297;-61
2021/09/12 08:12:54;;;;;;;7.40;5.13;;;19.40;99.90;;;;;;5035257;28;20178;-62
2021/09/12 08:15:20;;;;;;;5.67;5.17;;;19.50;99.90;;;;;;5019690;28;20200;-62
2021/09/12 08:17:47;;;;;;;5.37;4.87;;;19.50;99.90;;;;;;5015777;28;20227;-62
2021/09/12 08:20:13;;;;;;;4.23;3.93;;;19.40;99.90;;;;;;5015972;28;20438;-62
2021/09/12 08:22:38;;;;;;;5.80;5.30;;;19.40;99.90;;;;;;5016342;28;20636;-61
2021/09/12 08:25:05;;;;;;;5.90;5.30;;;19.40;99.90;;;;;;5035637;28;20199;-61
2021/09/12 08:27:31;;;;;;;9.20;4.93;;;19.50;99.90;;;;;;5036064;28;20207;-62
2021/09/12 08:29:56;;;;;;;6.60;5.67;;;19.40;99.90;;;;;;5035943;28;20496;-62
2021/09/12 08:32:22;;;;;;;5.10;4.23;;;19.40;99.90;;;;;;5017651;28;20171;-61
2021/09/12 08:34:48;;;;;;;5.40;4.60;;;19.50;99.90;;;;;;5035795;28;20557;-60
2021/09/12 08:37:13;;;;;;;4.83;4.30;;;19.60;99.90;;;;;;5035739;28;20254;-62
2021/09/12 08:39:39;;;;;;;5.20;4.70;;;19.40;99.90;;;;;;5035420;28;20697;-62
2021/09/12 08:42:05;;;;;;;4.83;4.37;;;19.60;99.90;;;;;;5035333;28;20171;-62
2021/09/12 08:44:34;;;;;;;4.23;3.70;;;19.80;99.90;;;;;;5035912;28;20249;-62
2021/09/12 08:46:59;;;;;;;3.97;3.67;;;20.10;99.90;;;;;;5035125;28;20461;-61
2021/09/12 08:49:25;;;;;;;4.40;4.00;;;20.30;99.90;;;;;;5035523;28;20763;-63
2021/09/12 08:51:50;;;;;;;4.03;3.73;;;20.40;99.90;;;;;;5035471;28;20176;-62
2021/09/12 08:54:16;;;;;;;4.07;3.53;;;20.50;99.90;;;;;;5034762;28;20191;-62
2021/09/12 08:56:42;;;;;;;5.13;4.57;;;20.50;99.90;;;;;;5035264;28;20532;-62
2021/09/12 08:59:27;;;;;;;4.03;3.70;;;20.40;99.90;;;;;;5035401;28;20167;-61
2021/09/12 09:01:55;;;;;;;5.23;4.80;;;20.40;99.90;;;;;;5034954;28;20170;-62
2021/09/12 09:04:20;;;;;;;4.43;3.83;;;20.40;99.90;;;;;;5035166;28;20421;-62
2021/09/12 09:06:46;;;;;;;4.47;4.10;;;20.50;99.90;;;;;;5035685;28;20937;-61
2021/09/12 09:09:11;;;;;;;4.73;4.33;;;20.60;99.90;;;;;;5034680;28;20167;-59
2021/09/12 09:11:40;;;;;;;4.40;4.00;;;20.40;99.90;;;;;;5035306;28;20671;-61
2021/09/12 09:14:17;;;;;;;4.13;3.83;;;20.30;99.90;;;;;;5056640;22;20234;-58
2021/09/12 09:16:45;;;;;;;4.70;4.40;;;20.50;99.90;;;;;;5023630;28;20407;-58
2021/09/12 09:19:11;;;;;;;4.23;3.83;;;20.60;99.90;;;;;;5015412;28;20444;-58
2021/09/12 09:21:45;;;;;;;4.00;3.60;;;20.80;99.90;;;;;;5014966;28;20494;-58
2021/09/12 09:24:22;;;;;;;5.00;4.50;;;20.90;99.90;;;;;;5027934;28;20206;-58
2021/09/12 09:26:50;;;;;;;5.83;3.83;;;21.00;99.90;;;;;;5034067;28;20477;-56
2021/09/12 09:29:23;;;;;;;3.53;3.13;;;21.00;99.90;;;;;;5034723;28;20410;-57
2021/09/12 09:32:08;;;;;;;4.20;3.53;;;21.10;99.90;;;;;;5034978;28;20393;-55
2021/09/12 09:34:37;;;;;;;2.93;2.60;;;21.40;99.90;;;;;;5034993;28;20808;-58
2021/09/12 09:37:12;;;;;;;2.87;2.67;;;21.40;99.90;;;;;;5034402;28;20501;-58
2021/09/12 09:39:42;;;;;;;3.63;3.33;;;21.40;99.90;;;;;;5034308;28;20952;-53
2021/09/12 09:42:34;;;;;;;6.93;3.00;;;21.40;99.90;;;;;;5034614;28;20741;-57
2021/09/12 09:45:05;;;;;;;2.93;2.67;;;21.50;99.90;;;;;;5034221;28;20432;-57
2021/09/12 09:47:31;;;;;;;3.40;3.10;;;21.50;99.90;;;;;;5033940;28;20438;-54
2021/09/12 09:50:08;;;;;;;3.90;3.20;;;21.60;99.90;;;;;;5034213;28;20471;-58
2021/09/12 09:52:36;;;;;;;3.17;2.60;;;21.70;99.90;;;;;;5034373;28;20167;-54
2021/09/12 09:55:03;;;;;;;5.93;2.50;;;21.90;99.90;;;;;;5033821;28;20922;-57
2021/09/12 09:57:29;;;;;;;2.07;1.97;;;22.10;99.90;;;;;;5034290;28;20425;-58
2021/09/12 09:59:55;;;;;;;2.67;2.47;;;22.10;99.90;;;;;;5034194;28;20437;-57
2021/09/12 10:02:21;;;;;;;2.80;2.60;;;22.10;99.90;;;;;;5033851;28;20437;-58
2021/09/12 10:04:47;;;;;;;2.70;2.50;;;22.10;99.90;;;;;;5034254;28;20509;-58
2021/09/12 10:07:13;;;;;;;2.77;2.57;;;22.20;99.90;;;;;;5034366;28;20261;-57
2021/09/12 10:09:39;;;;;;;3.47;2.93;;;22.30;99.90;;;;;;5033898;28;20489;-58
2021/09/12 10:12:11;;;;;;;2.93;2.57;;;22.60;99.90;;;;;;5034340;28;20167;-57
2021/09/12 10:14:56;;;;;;;3.23;2.67;;;22.80;99.90;;;;;;5033770;28;20446;-58
2021/09/12 10:17:27;;;;;;;2.03;1.93;;;22.80;99.90;;;;;;5033827;28;20903;-58
2021/09/12 10:20:10;;;;;;;3.03;2.83;;;22.70;99.90;;;;;;5033256;28;20434;-58
2021/09/12 10:23:02;;;;;;;3.23;3.00;;;22.80;99.90;;;;;;5033075;28;20497;-58
2021/09/12 10:25:53;;;;;;;2.90;2.70;;;22.70;99.90;;;;;;5033557;28;20426;-59
2021/09/12 10:28:29;;;;;;;3.20;2.73;;;22.80;99.90;;;;;;5022819;28;20868;-58
2021/09/12 10:30:55;;;;;;;3.30;3.00;;;23.10;99.90;;;;;;5034075;28;20907;-58
2021/09/12 10:33:28;;;;;;;2.97;2.77;;;23.00;99.90;;;;;;5033525;28;20445;-58
2021/09/12 10:35:59;;;;;;;3.60;3.30;;;23.00;99.90;;;;;;5033442;28;20647;-58
2021/09/12 10:38:31;;;;;;;3.27;2.97;;;22.90;99.90;;;;;;5033094;28;20402;-58
2021/09/12 10:40:57;;;;;;;3.60;3.30;;;23.10;99.90;;;;;;5033772;28;20437;-58
2021/09/12 10:43:25;;;;;;;3.30;2.90;;;23.20;99.90;;;;;;5033506;28;20433;-57
2021/09/12 10:46:07;;;;;;;3.00;2.50;;;23.50;99.90;;;;;;5033453;28;20183;-58
2021/09/12 10:48:39;;;;;;;3.73;2.60;;;23.70;99.90;;;;;;5033311;28;20858;-58
2021/09/12 10:51:05;;;;;;;2.90;2.30;;;24.10;99.90;;;;;;5033272;28;20406;-57
2021/09/12 10:53:47;;;;;;;3.37;2.60;;;24.90;99.90;;;;;;5032983;28;20402;-58
2021/09/12 10:56:13;;;;;;;3.03;2.60;;;25.10;99.90;;;;;;5033556;28;20815;-58
2021/09/12 10:58:39;;;;;;;2.40;2.20;;;25.30;99.90;;;;;;5033494;28;20406;-55
2021/09/12 11:01:07;;;;;;;2.50;2.30;;;25.50;99.90;;;;;;5033253;28;20402;-58
2021/09/12 11:03:34;;;;;;;4.70;2.67;;;25.80;99.50;;;;;;5032954;28;20422;-58
2021/09/12 11:06:00;;;;;;;2.47;2.27;;;26.90;98.50;;;;;;5033588;28;20406;-57
2021/09/12 11:08:37;;;;;;;3.73;2.87;;;27.70;95.70;;;;;;5032922;28;20544;-52
2021/09/12 11:11:05;;;;;;;3.23;2.20;;;27.90;95.20;;;;;;5033081;28;20382;-58
2021/09/12 11:13:31;;;;;;;2.10;2.00;;;28.50;94.30;;;;;;5032917;28;20434;-58
2021/09/12 11:16:11;;;;;;;4.20;2.53;;;30.10;92.30;;;;;;5032893;28;20406;-58
2021/09/12 11:18:54;;;;;;;2.20;2.10;;;30.10;90.40;;;;;;5033003;28;20382;-54
2021/09/12 11:21:34;;;;;;;2.50;2.03;;;30.50;88.50;;;;;;5033067;28;20386;-59
2021/09/12 11:24:17;;;;;;;2.00;1.90;;;32.10;84.10;;;;;;5032683;28;20444;-58
2021/09/12 11:26:46;;;;;;;1.70;1.60;;;32.90;79.30;;;;;;5033053;28;20384;-58
2021/09/12 11:29:16;;;;;;;2.27;1.60;;;32.40;75.70;;;;;;5033551;28;20509;-58
2021/09/12 11:31:44;;;;;;;1.90;1.80;;;32.20;77.00;;;;;;5033232;28;20485;-55
2021/09/12 11:34:11;;;;;;;2.47;2.13;;;33.60;73.70;;;;;;5032624;28;20429;-58
2021/09/12 11:36:42;;;;;;;2.80;2.20;;;33.30;71.20;;;;;;5032829;28;20455;-58
2021/09/12 11:39:07;;;;;;;2.73;2.43;;;32.80;71.50;;;;;;5033256;28;20402;-57
2021/09/12 11:41:33;;;;;;;1.60;1.50;;;32.40;70.20;;;;;;5033061;28;20402;-59
2021/09/12 11:44:00;;;;;;;2.30;2.10;;;33.70;69.60;;;;;;5032769;28;20206;-59
2021/09/12 11:46:26;;;;;;;1.90;1.70;;;33.60;67.70;;;;;;5032728;28;20639;-58
2021/09/12 11:48:54;;;;;;;4.13;2.27;;;34.60;66.30;;;;;;5033668;28;20528;-58
2021/09/12 11:51:25;;;;;;;2.07;1.87;;;35.30;65.40;;;;;;5036527;28;20409;-59
2021/09/12 11:54:03;;;;;;;1.93;1.80;;;35.80;61.70;;;;;;5036114;28;21063;-58
2021/09/12 11:56:29;;;;;;;1.93;1.80;;;35.80;60.00;;;;;;5036424;28;20448;-58
2021/09/12 11:58:55;;;;;;;2.33;2.13;;;34.70;63.50;;;;;;5036520;28;20406;-56
2021/09/12 12:01:21;;;;;;;2.30;1.93;;;32.30;65.50;;;;;;5036445;28;20164;-59
2021/09/12 12:03:47;;;;;;;3.13;2.10;;;33.10;66.20;;;;;;5036466;28;20164;-58
2021/09/12 12:06:12;;;;;;;2.00;1.70;;;34.00;64.00;;;;;;5036338;28;20176;-59
2021/09/12 12:09:06;;;;;;;4.50;2.37;;;34.50;64.60;;;;;;5029727;28;20199;-58
2021/09/12 12:11:33;;;;;;;2.43;1.97;;;35.10;61.90;;;;;;5036421;28;20573;-59
2021/09/12 12:13:58;;;;;;;2.37;2.17;;;35.20;59.60;;;;;;5032753;28;20442;-58
2021/09/12 12:16:24;;;;;;;2.47;2.27;;;34.90;60.80;;;;;;5036445;28;20788;-59
2021/09/12 12:19:12;;;;;;;1.93;1.83;;;34.40;60.60;;;;;;5035896;28;20198;-56
2021/09/12 12:21:43;;;;;;;2.30;2.10;;;34.30;61.50;;;;;;5036179;28;20156;-59
2021/09/12 12:24:21;;;;;;;1.80;1.67;;;35.20;62.80;;;;;;5035579;28;20436;-59
2021/09/12 12:26:47;;;;;;;2.13;1.93;;;35.20;58.80;;;;;;5036128;28;20402;-58
2021/09/12 12:29:27;;;;;;;2.90;1.80;;;34.50;59.80;;;;;;5036000;28;20398;-58
2021/09/12 12:31:54;;;;;;;2.53;2.13;;;34.80;60.40;;;;;;5035382;28;20902;-59
2021/09/12 12:34:49;;;;;;;2.30;2.13;;;34.10;62.70;;;;;;5035284;28;20410;-58
2021/09/12 12:37:25;;;;;;;2.33;1.77;;;34.50;61.00;;;;;;5036149;28;20814;-59
2021/09/12 12:40:05;;;;;;;2.17;2.07;;;34.70;59.80;;;;;;5035492;28;20492;-58
2021/09/12 12:42:37;;;;;;;1.90;1.80;;;33.30;62.00;;;;;;5035622;28;20402;-59
2021/09/12 12:45:25;;;;;;;3.70;2.07;;;32.80;62.60;;;;;;5035341;28;20414;-60
2021/09/12 12:47:59;;;;;;;1.90;1.70;;;33.10;61.50;;;;;;5035269;28;20930;-58
2021/09/12 12:50:30;;;;;;;2.17;1.97;;;35.00;59.50;;;;;;5036285;28;20386;-58